createdAt,value
2018-11-07T00:02:25.680Z,95.87
2018-11-07T00:05:29.284Z,97.03
2018-11-07T00:08:32.810Z,97.32
2018-11-07T00:11:36.391Z,97.17
2018-11-07T00:14:41.025Z,98.06
2018-11-07T00:17:44.630Z,98.43
2018-11-07T00:20:48.183Z,98.39
2018-11-07T00:23:51.883Z,98.49
2018-11-07T00:26:55.437Z,97.58
2018-11-07T00:29:59.200Z,97.79
2018-11-07T00:33:02.715Z,98.25
2018-11-07T00:36:06.811Z,98.63
2018-11-07T00:39:10.883Z,98.69
2018-11-07T00:42:14.367Z,99.32
2018-11-07T00:45:17.952Z,98.44
2018-11-07T00:48:21.526Z,98.38
2018-11-07T00:51:25.015Z,98.73
2018-11-07T00:54:28.562Z,98.79
2018-11-07T00:57:32.147Z,97.98
2018-11-07T01:00:35.630Z,97.93
2018-11-07T01:03:39.255Z,98.08
2018-11-07T01:06:42.707Z,98.56
2018-11-07T01:09:46.287Z,98.45
2018-11-07T01:12:49.952Z,98.28
2018-11-07T01:15:53.467Z,98.90
2018-11-07T01:18:56.961Z,98.63
2018-11-07T01:22:00.503Z,98.59
2018-11-07T01:25:04.243Z,98.00
2018-11-07T01:28:07.768Z,97.77
2018-11-07T01:31:11.244Z,97.78
2018-11-07T01:34:15.112Z,97.77
2018-11-07T01:37:18.633Z,97.93
2018-11-07T01:40:22.219Z,97.81
2018-11-07T01:43:25.724Z,97.53
2018-11-07T01:46:29.207Z,97.56
2018-11-07T01:49:32.744Z,96.79
2018-11-07T01:52:36.283Z,96.86
2018-11-07T01:55:39.805Z,97.08
2018-11-07T01:58:43.251Z,96.51
2018-11-07T02:01:46.755Z,97.25
2018-11-07T02:04:50.280Z,96.89
2018-11-07T02:07:53.874Z,96.78
2018-11-07T02:10:57.405Z,96.22
2018-11-07T02:14:00.975Z,96.03
2018-11-07T02:17:04.562Z,95.51
2018-11-07T02:20:09.440Z,95.26
2018-11-07T02:23:13.025Z,95.48
2018-11-07T02:26:16.606Z,96.22
2018-11-07T02:29:21.165Z,96.77
2018-11-07T02:32:24.661Z,96.76
2018-11-07T02:35:28.170Z,96.89
2018-11-07T02:38:31.681Z,97.79
2018-11-07T02:41:35.243Z,97.63
2018-11-07T02:44:38.707Z,96.72
2018-11-07T02:47:42.315Z,96.46
2018-11-07T02:50:45.816Z,96.47
2018-11-07T02:53:49.356Z,96.38
2018-11-07T02:56:52.893Z,96.54
2018-11-07T02:59:56.437Z,96.21
2018-11-07T03:02:59.949Z,96.55
2018-11-07T03:06:03.513Z,97.02
2018-11-07T03:09:09.351Z,97.08
2018-11-07T03:12:12.770Z,96.94
2018-11-07T03:15:16.315Z,96.82
2018-11-07T03:18:19.818Z,98.00
2018-11-07T03:21:23.300Z,97.20
2018-11-07T03:24:26.803Z,97.07
2018-11-07T03:27:30.310Z,97.05
2018-11-07T03:30:33.772Z,97.73
2018-11-07T03:33:37.350Z,97.37
2018-11-07T03:36:40.849Z,97.23
2018-11-07T03:39:44.489Z,96.92
2018-11-07T03:42:48.047Z,96.75
2018-11-07T03:45:56.807Z,97.03
2018-11-07T03:49:00.259Z,97.28
2018-11-07T03:52:03.715Z,96.51
2018-11-07T03:55:07.465Z,96.30
2018-11-07T03:58:10.974Z,96.10
2018-11-07T04:01:14.479Z,95.60
2018-11-07T04:04:18.004Z,95.40
2018-11-07T04:07:21.448Z,95.16
2018-11-07T04:10:24.985Z,95.31
2018-11-07T04:13:28.507Z,95.62
2018-11-07T04:16:32.010Z,95.56
2018-11-07T04:19:35.513Z,95.61
2018-11-07T04:22:39.358Z,95.34
2018-11-07T04:25:42.729Z,95.70
2018-11-07T04:28:46.195Z,95.78
2018-11-07T04:31:49.731Z,95.92
2018-11-07T04:34:53.744Z,95.94
2018-11-07T04:37:57.170Z,95.77
2018-11-07T04:41:00.609Z,95.91
2018-11-07T04:44:04.323Z,95.74
2018-11-07T04:47:08.092Z,95.67
2018-11-07T04:50:12.547Z,95.74
2018-11-07T04:53:16.099Z,95.70
2018-11-07T04:56:19.504Z,95.28
2018-11-07T04:59:23.121Z,95.29
2018-11-07T05:02:26.757Z,95.75
2018-11-07T05:05:30.327Z,95.74
2018-11-07T05:08:33.993Z,95.34
2018-11-07T05:11:37.443Z,95.29
2018-11-07T05:14:40.998Z,95.21
2018-11-07T05:17:44.578Z,96.18
2018-11-07T05:20:48.225Z,95.79
2018-11-07T05:23:53.051Z,95.66
2018-11-07T05:26:56.678Z,95.54
2018-11-07T05:30:00.248Z,95.35
2018-11-07T05:33:03.868Z,96.11
2018-11-07T05:36:07.950Z,95.91
2018-11-07T05:39:11.493Z,95.94
2018-11-07T05:42:15.127Z,96.68
2018-11-07T05:45:18.799Z,96.39
2018-11-07T05:48:22.268Z,95.91
2018-11-07T05:51:25.862Z,95.38
2018-11-07T05:54:29.369Z,95.25
2018-11-07T05:57:32.815Z,95.05
2018-11-07T06:00:37.360Z,95.66
2018-11-07T06:03:40.931Z,95.17
2018-11-07T06:06:44.513Z,95.80
2018-11-07T06:09:48.013Z,95.04
2018-11-07T06:12:51.478Z,96.03
2018-11-07T06:15:55.101Z,95.26
2018-11-07T06:18:59.611Z,94.18
2018-11-07T06:22:18.474Z,94.45
2018-11-07T06:25:23.057Z,94.46
2018-11-07T06:28:26.623Z,94.02
2018-11-07T06:31:30.152Z,93.90
2018-11-07T06:34:33.612Z,93.90
2018-11-07T06:37:37.135Z,93.60
2018-11-07T06:40:40.640Z,94.33
2018-11-07T06:43:44.145Z,93.89
2018-11-07T06:46:47.628Z,94.33
2018-11-07T06:49:51.095Z,94.20
2018-11-07T06:52:54.947Z,93.43
2018-11-07T06:55:58.518Z,94.41
2018-11-07T06:59:02.124Z,93.82
2018-11-07T07:02:05.707Z,93.80
2018-11-07T07:05:09.222Z,94.37
2018-11-07T07:08:12.793Z,94.05
2018-11-07T07:11:16.219Z,94.44
2018-11-07T07:14:19.784Z,94.72
2018-11-07T07:17:23.417Z,95.22
2018-11-07T07:20:27.001Z,94.52
2018-11-07T07:23:30.504Z,94.40
2018-11-07T07:26:34.142Z,94.04
2018-11-07T07:29:37.716Z,93.90
2018-11-07T07:32:42.100Z,93.70
2018-11-07T07:35:46.680Z,93.64
2018-11-07T07:38:50.295Z,93.63
2018-11-07T07:41:53.689Z,93.83
2018-11-07T07:44:57.052Z,93.86
2018-11-07T07:48:00.501Z,93.68
2018-11-07T07:51:04.006Z,93.66
2018-11-07T07:54:07.571Z,93.34
2018-11-07T07:57:11.010Z,92.94
2018-11-07T08:00:16.699Z,92.34
2018-11-07T08:03:20.151Z,92.05
2018-11-07T08:06:23.861Z,91.61
2018-11-07T08:09:27.343Z,90.68
2018-11-07T08:12:30.740Z,89.33
2018-11-07T08:15:34.223Z,90.07
2018-11-07T08:18:37.738Z,89.90
2018-11-07T08:21:41.280Z,89.67
2018-11-07T08:24:44.742Z,89.33
2018-11-07T08:27:48.207Z,88.78
2018-11-07T08:30:51.986Z,88.94
2018-11-07T08:33:55.368Z,88.53
2018-11-07T08:36:58.813Z,88.40
2018-11-07T08:40:02.413Z,88.06
2018-11-07T08:43:05.942Z,87.57
2018-11-07T08:46:09.467Z,86.43
2018-11-07T08:49:12.953Z,86.08
2018-11-07T08:52:16.456Z,85.91
2018-11-07T08:55:21.251Z,84.90
2018-11-07T08:58:24.698Z,83.94
2018-11-07T09:01:28.243Z,83.48
2018-11-07T09:04:31.678Z,83.58
2018-11-07T09:07:35.525Z,82.62
2018-11-07T09:10:38.991Z,81.98
2018-11-07T09:13:42.521Z,81.60
2018-11-07T09:16:45.971Z,81.68
2018-11-07T09:19:49.484Z,80.71
2018-11-07T09:22:53.022Z,80.61
2018-11-07T09:25:56.620Z,80.13
2018-11-07T09:29:00.135Z,79.90
2018-11-07T09:32:03.490Z,80.40
2018-11-07T09:35:08.013Z,79.09
2018-11-07T09:38:11.426Z,78.33
2018-11-07T09:41:14.969Z,78.39
2018-11-07T09:44:18.487Z,77.63
2018-11-07T09:47:22.043Z,77.61
2018-11-07T09:50:25.477Z,77.00
2018-11-07T09:53:28.935Z,76.95
2018-11-07T09:56:32.300Z,76.35
2018-11-07T09:59:35.875Z,76.75
2018-11-07T10:02:39.630Z,75.57
2018-11-07T10:05:43.079Z,75.11
2018-11-07T10:08:46.672Z,74.44
2018-11-07T10:11:50.211Z,74.53
2018-11-07T10:14:54.806Z,72.70
2018-11-07T10:17:58.284Z,72.56
2018-11-07T10:21:01.683Z,72.69
2018-11-07T10:24:05.429Z,71.51
2018-11-07T10:27:09.165Z,71.22
2018-11-07T10:30:14.612Z,72.47
2018-11-07T10:33:17.749Z,71.28
2018-11-07T10:36:21.442Z,71.72
2018-11-07T10:39:24.856Z,71.04
2018-11-07T10:42:28.335Z,71.95
2018-11-07T10:45:31.790Z,73.27
2018-11-07T10:48:35.389Z,73.77
2018-11-07T10:51:39.006Z,74.61
2018-11-07T10:54:42.614Z,74.02
2018-11-07T10:57:46.389Z,73.04
2018-11-07T11:00:55.106Z,71.51
2018-11-07T11:03:58.524Z,71.62
2018-11-07T11:07:02.045Z,70.25
2018-11-07T11:10:05.768Z,69.33
2018-11-07T11:13:10.419Z,69.85
2018-11-07T11:16:13.909Z,68.76
2018-11-07T11:19:17.495Z,69.08
2018-11-07T11:22:21.108Z,67.87
2018-11-07T11:25:24.714Z,67.16
2018-11-07T11:28:28.281Z,67.92
2018-11-07T11:31:31.795Z,68.34
2018-11-07T11:34:35.523Z,67.69
2018-11-07T11:37:39.158Z,66.13
2018-11-07T11:40:42.673Z,67.11
2018-11-07T11:43:46.213Z,65.79
2018-11-07T11:46:50.020Z,65.44
2018-11-07T11:49:53.561Z,66.01
2018-11-07T11:52:57.091Z,64.71
2018-11-07T11:56:00.610Z,64.68
2018-11-07T11:59:04.583Z,63.98
2018-11-07T12:02:08.082Z,64.02
2018-11-07T12:05:12.854Z,64.21
2018-11-07T12:08:16.467Z,62.93
2018-11-07T12:11:19.993Z,62.52
2018-11-07T12:14:23.559Z,62.84
2018-11-07T12:17:27.092Z,62.99
2018-11-07T12:20:30.716Z,62.39
2018-11-07T12:23:34.274Z,60.80
2018-11-07T12:26:37.818Z,61.53
2018-11-07T12:29:41.449Z,61.10
2018-11-07T12:32:46.357Z,64.10
2018-11-07T12:35:50.161Z,61.44
2018-11-07T12:38:53.573Z,60.48
2018-11-07T12:41:57.069Z,59.89
2018-11-07T12:45:01.153Z,60.87
2018-11-07T12:48:04.903Z,62.38
2018-11-07T12:51:08.506Z,62.38
2018-11-07T12:54:11.955Z,62.53
2018-11-07T12:57:15.499Z,62.50
2018-11-07T13:00:21.434Z,62.70
2018-11-07T13:03:24.821Z,61.75
2018-11-07T13:06:28.329Z,61.18
2018-11-07T13:09:31.839Z,61.92
2018-11-07T13:12:35.308Z,63.16
2018-11-07T13:15:38.817Z,61.62
2018-11-07T13:18:42.521Z,61.44
2018-11-07T13:21:46.043Z,60.37
2018-11-07T13:24:49.525Z,59.95
2018-11-07T13:27:53.115Z,59.79
2018-11-07T13:30:56.655Z,58.97
2018-11-07T13:34:00.196Z,59.38
2018-11-07T13:37:03.754Z,58.82
2018-11-07T13:40:10.141Z,58.24
2018-11-07T13:43:13.696Z,58.56
2018-11-07T13:46:17.309Z,58.92
2018-11-07T13:49:20.833Z,57.39
2018-11-07T13:52:24.356Z,57.67
2018-11-07T13:55:27.927Z,57.46
2018-11-07T13:58:31.492Z,57.35
2018-11-07T14:01:34.988Z,57.65
2018-11-07T14:04:38.446Z,58.00
2018-11-07T14:07:42.022Z,57.57
2018-11-07T14:10:45.540Z,58.66
2018-11-07T14:13:49.133Z,58.18
2018-11-07T14:16:52.736Z,58.24
2018-11-07T14:19:56.293Z,60.03
2018-11-07T14:22:59.786Z,60.66
2018-11-07T14:26:03.514Z,61.68
2018-11-07T14:29:07.093Z,60.77
2018-11-07T14:32:10.641Z,59.59
2018-11-07T14:35:14.288Z,60.31
2018-11-07T14:38:17.972Z,60.31
2018-11-07T14:41:21.484Z,61.51
2018-11-07T14:44:25.111Z,62.53
2018-11-07T14:47:28.704Z,62.87
2018-11-07T14:50:32.136Z,63.34
2018-11-07T14:53:35.720Z,64.02
2018-11-07T14:56:39.113Z,64.07
2018-11-07T14:59:42.763Z,64.71
2018-11-07T15:02:46.625Z,65.02
2018-11-07T15:05:50.122Z,65.50
2018-11-07T15:08:53.619Z,66.07
2018-11-07T15:11:57.107Z,66.77
2018-11-07T15:15:00.625Z,67.44
2018-11-07T15:18:04.087Z,68.21
2018-11-07T15:21:07.638Z,68.88
2018-11-07T15:24:11.190Z,69.61
2018-11-07T15:27:14.741Z,70.15
2018-11-07T15:30:18.619Z,70.31
2018-11-07T15:33:23.059Z,70.66
2018-11-07T15:36:26.567Z,71.03
2018-11-07T15:39:29.976Z,71.36
2018-11-07T15:42:33.555Z,71.74
2018-11-07T15:45:37.114Z,72.27
2018-11-07T15:48:40.692Z,73.16
2018-11-07T15:51:44.298Z,73.86
2018-11-07T15:54:47.760Z,75.03
2018-11-07T15:57:51.291Z,76.09
2018-11-07T16:00:54.784Z,76.92
2018-11-07T16:03:59.557Z,77.14
2018-11-07T16:07:03.296Z,77.21
2018-11-07T16:10:08.149Z,77.17
2018-11-07T16:13:11.743Z,77.89
2018-11-07T16:16:15.156Z,78.14
2018-11-07T16:19:18.773Z,79.57
2018-11-07T16:22:22.240Z,78.87
2018-11-07T16:25:25.757Z,78.99
2018-11-07T16:28:29.405Z,79.60
2018-11-07T16:31:32.996Z,79.59
2018-11-07T16:34:36.598Z,79.95
2018-11-07T16:37:40.297Z,80.84
2018-11-07T16:40:43.834Z,80.74
2018-11-07T16:43:48.236Z,80.89
2018-11-07T16:46:51.725Z,80.21
2018-11-07T16:49:55.150Z,79.32
2018-11-07T16:52:58.531Z,78.86
2018-11-07T16:56:01.997Z,78.93
2018-11-07T16:59:06.485Z,78.46
2018-11-07T17:02:10.094Z,78.39
2018-11-07T17:05:13.968Z,78.47
2018-11-07T17:08:17.479Z,77.98
2018-11-07T17:11:21.089Z,77.87
2018-11-07T17:14:24.479Z,77.43
2018-11-07T17:17:27.921Z,77.36
2018-11-07T17:20:31.288Z,76.10
2018-11-07T17:23:35.034Z,76.46
2018-11-07T17:26:38.495Z,77.02
2018-11-07T17:29:41.932Z,77.03
2018-11-07T17:32:45.459Z,77.18
2018-11-07T17:35:48.955Z,77.15
2018-11-07T17:38:52.469Z,77.31
2018-11-07T17:41:55.915Z,77.23
2018-11-07T17:44:59.394Z,76.56
2018-11-07T17:48:03.993Z,76.28
2018-11-07T17:51:07.398Z,76.21
2018-11-07T17:54:10.989Z,76.26
2018-11-07T17:57:14.508Z,76.33
2018-11-07T18:00:22.358Z,76.52
2018-11-07T18:03:25.944Z,76.61
2018-11-07T18:06:30.983Z,76.79
2018-11-07T18:09:34.629Z,76.88
2018-11-07T18:12:38.500Z,76.79
2018-11-07T18:15:42.141Z,76.82
2018-11-07T18:18:45.710Z,76.64
2018-11-07T18:21:49.279Z,77.24
2018-11-07T18:24:52.934Z,77.73
2018-11-07T18:27:56.651Z,77.68
2018-11-07T18:31:00.189Z,78.04
2018-11-07T18:34:05.957Z,78.47
2018-11-07T18:37:11.618Z,78.65
2018-11-07T18:40:16.543Z,78.97
2018-11-07T18:43:20.134Z,79.06
2018-11-07T18:46:23.806Z,80.09
2018-11-07T18:49:27.495Z,80.11
2018-11-07T18:52:30.980Z,80.68
2018-11-07T18:55:34.564Z,81.46
2018-11-07T18:58:38.344Z,81.33
2018-11-07T19:01:42.784Z,81.45
2018-11-07T19:04:46.251Z,82.56
2018-11-07T19:07:49.753Z,82.40
2018-11-07T19:10:53.242Z,82.55
2018-11-07T19:13:56.731Z,82.87
2018-11-07T19:17:00.414Z,83.27
2018-11-07T19:20:03.988Z,83.63
2018-11-07T19:23:07.469Z,83.86
2018-11-07T19:26:11.109Z,83.71
2018-11-07T19:29:14.575Z,83.76
2018-11-07T19:32:19.117Z,84.17
2018-11-07T19:35:23.029Z,85.20
2018-11-07T19:38:26.549Z,85.73
2018-11-07T19:41:30.084Z,85.97
2018-11-07T19:44:33.656Z,85.69
2018-11-07T19:47:37.815Z,87.42
2018-11-07T19:50:41.347Z,88.25
2018-11-07T19:53:44.830Z,89.01
2018-11-07T19:56:48.346Z,88.60
2018-11-07T19:59:51.928Z,89.18
2018-11-07T20:02:55.713Z,89.05
2018-11-07T20:05:59.206Z,89.45
2018-11-07T20:09:02.731Z,90.57
2018-11-07T20:12:06.720Z,89.87
2018-11-07T20:15:11.747Z,90.06
2018-11-07T20:18:15.316Z,88.79
2018-11-07T20:21:18.933Z,88.60
2018-11-07T20:24:22.426Z,88.74
2018-11-07T20:27:25.973Z,88.57
2018-11-07T20:30:30.429Z,88.92
2018-11-07T20:33:33.885Z,89.26
2018-11-07T20:36:37.394Z,89.21
2018-11-07T20:39:41.014Z,89.67
2018-11-07T20:42:45.540Z,89.41
2018-11-07T20:45:49.031Z,90.04
2018-11-07T20:48:52.978Z,91.50
2018-11-07T20:51:56.418Z,91.19
2018-11-07T20:54:59.926Z,90.70
2018-11-07T20:58:03.445Z,91.34
2018-11-07T21:01:06.958Z,91.35
2018-11-07T21:04:10.459Z,90.99
2018-11-07T21:07:13.965Z,91.38
2018-11-07T21:10:18.862Z,91.89
2018-11-07T21:13:22.360Z,92.65
2018-11-07T21:16:25.918Z,92.28
2018-11-07T21:19:29.525Z,92.84
2018-11-07T21:22:33.027Z,93.01
2018-11-07T21:25:36.662Z,92.73
2018-11-07T21:28:40.109Z,91.92
2018-11-07T21:31:43.617Z,91.29
2018-11-07T21:34:47.132Z,91.74
2018-11-07T21:37:50.584Z,91.23
2018-11-07T21:40:54.094Z,90.48
2018-11-07T21:43:57.583Z,90.39
2018-11-07T21:47:00.966Z,90.36
2018-11-07T21:50:05.251Z,90.49
2018-11-07T21:53:08.676Z,90.57
2018-11-07T21:56:12.158Z,91.02
2018-11-07T21:59:16.721Z,91.03
2018-11-07T22:02:20.135Z,90.71
2018-11-07T22:05:23.666Z,90.99
2018-11-07T22:08:27.109Z,91.28
2018-11-07T22:11:30.683Z,91.30
2018-11-07T22:14:34.133Z,92.06
2018-11-07T22:17:37.854Z,92.09
2018-11-07T22:20:41.256Z,91.20
2018-11-07T22:23:44.653Z,91.28
2018-11-07T22:26:48.095Z,91.18
2018-11-07T22:29:51.768Z,91.34
2018-11-07T22:32:55.202Z,91.17
2018-11-07T22:35:58.635Z,91.42
2018-11-07T22:39:02.055Z,91.10
2018-11-07T22:42:05.809Z,90.71
2018-11-07T22:45:09.891Z,90.66
2018-11-07T22:48:13.291Z,90.99
2018-11-07T22:51:16.846Z,91.78
2018-11-07T22:54:20.383Z,92.00
2018-11-07T22:57:23.821Z,91.36
2018-11-07T23:00:32.560Z,91.15
2018-11-07T23:03:36.147Z,90.85
2018-11-07T23:06:40.235Z,91.92
2018-11-07T23:09:43.773Z,91.36
2018-11-07T23:12:47.683Z,92.18
2018-11-07T23:15:52.173Z,91.33
2018-11-07T23:18:55.813Z,91.49
2018-11-07T23:21:59.264Z,90.73
2018-11-07T23:25:02.943Z,91.01
2018-11-07T23:28:06.624Z,90.90
2018-11-07T23:31:10.238Z,90.37
2018-11-07T23:34:13.707Z,91.26
2018-11-07T23:37:17.252Z,90.95
2018-11-07T23:40:20.818Z,90.31
2018-11-07T23:43:24.347Z,90.42
2018-11-07T23:46:27.860Z,91.07
2018-11-07T23:49:31.322Z,90.72
2018-11-07T23:52:40.184Z,91.12
2018-11-07T23:55:44.566Z,91.00
2018-11-07T23:58:49.392Z,91.15
